Time,TemperatureF,DewpointF,PressureIn,WindDirection,WindDirectionDegrees,WindSpeedMPH,WindSpeedGustMPH,Humidity,HourlyPrecipIn,Conditions,Clouds,dailyrainin,SoftwareType,DateUTC
2013-04-20 00:02:00,50.5,47.5,30.12,West,266,0.0,0.0,89,0.00,,,0.00,meteohub,2013-04-20 07:02:00,
2013-04-20 00:07:00,50.4,47.3,30.12,West,266,0.0,1.0,89,0.00,,,0.00,meteohub,2013-04-20 07:07:00,
2013-04-20 00:12:00,50.2,47.3,30.12,West,266,0.0,1.0,90,0.00,,,0.00,meteohub,2013-04-20 07:12:00,
2013-04-20 00:17:00,50.0,47.1,30.11,West,266,0.0,1.0,90,0.00,,,0.00,meteohub,2013-04-20 07:17:00,
2013-04-20 00:22:00,49.8,46.9,30.12,West,266,0.0,0.0,90,0.00,,,0.00,meteohub,2013-04-20 07:22:00,
2013-04-20 00:27:00,49.8,46.9,30.12,West,266,0.0,0.0,90,0.00,,,0.00,meteohub,2013-04-20 07:27:00,
2013-04-20 00:32:00,49.6,46.8,30.12,West,266,0.0,0.0,90,0.00,,,0.00,meteohub,2013-04-20 07:32:00,
2013-04-20 00:37:00,49.6,46.8,30.12,West,266,0.0,0.0,90,0.00,,,0.00,meteohub,2013-04-20 07:37:00,
2013-04-20 00:42:00,49.6,47.1,30.12,West,266,0.0,0.0,91,0.00,,,0.00,meteohub,2013-04-20 07:42:00,
2013-04-20 00:47:00,49.6,47.1,30.12,West,266,3.0,3.0,91,0.00,,,0.00,meteohub,2013-04-20 07:47:00,
2013-04-20 00:52:00,49.6,46.8,30.13,West,272,4.0,4.0,90,0.00,,,0.00,meteohub,2013-04-20 07:52:00,
2013-04-20 00:57:00,49.3,46.4,30.12,West,274,0.0,7.0,90,0.00,,,0.00,meteohub,2013-04-20 07:57:00,
2013-04-20 01:02:00,49.1,46.6,30.13,West,274,0.0,7.0,91,0.00,,,0.00,meteohub,2013-04-20 08:02:00,
2013-04-20 01:07:00,48.9,46.4,30.12,West,274,0.0,7.0,91,0.00,,,0.00,meteohub,2013-04-20 08:07:00,
2013-04-20 01:12:00,48.7,46.2,30.13,West,274,0.0,5.0,91,0.00,,,0.00,meteohub,2013-04-20 08:12:00,
2013-04-20 01:17:00,48.7,46.2,30.13,West,274,0.0,4.0,91,0.00,,,0.00,meteohub,2013-04-20 08:17:00,
2013-04-20 01:22:00,48.6,46.0,30.12,West,274,0.0,3.0,91,0.00,,,0.00,meteohub,2013-04-20 08:22:00,
2013-04-20 01:27:00,48.6,46.4,30.12,West,274,0.0,0.0,92,0.00,,,0.00,meteohub,2013-04-20 08:27:00,
2013-04-20 01:32:00,48.6,46.4,30.13,West,274,0.0,0.0,92,0.00,,,0.00,meteohub,2013-04-20 08:32:00,
2013-04-20 01:37:00,48.6,46.4,30.12,West,274,0.0,0.0,92,0.00,,,0.00,meteohub,2013-04-20 08:37:00,
2013-04-20 01:42:00,48.6,46.4,30.13,West,274,0.0,0.0,92,0.00,,,0.00,meteohub,2013-04-20 08:42:00,
2013-04-20 01:47:00,48.6,46.4,30.13,West,274,0.0,0.0,92,0.00,,,0.00,meteohub,2013-04-20 08:47:00,
2013-04-20 01:52:00,48.4,46.2,30.12,West,274,0.0,0.0,92,0.00,,,0.00,meteohub,2013-04-20 08:52:00,
2013-04-20 01:57:00,48.4,46.2,30.12,West,274,0.0,0.0,92,0.00,,,0.00,meteohub,2013-04-20 08:57:00,
2013-04-20 02:02:00,48.4,46.2,30.12,West,274,0.0,0.0,92,0.00,,,0.00,meteohub,2013-04-20 09:02:00,
2013-04-20 02:07:00,48.4,46.4,30.12,West,274,0.0,0.0,93,0.00,,,0.00,meteohub,2013-04-20 09:07:00,
2013-04-20 02:12:00,48.4,46.4,30.12,West,274,0.0,1.0,93,0.00,,,0.00,meteohub,2013-04-20 09:12:00,
2013-04-20 02:17:00,48.4,46.4,30.12,West,274,0.0,1.0,93,0.00,,,0.00,meteohub,2013-04-20 09:17:00,
2013-04-20 02:22:00,48.4,46.4,30.12,West,274,0.0,0.0,93,0.00,,,0.00,meteohub,2013-04-20 09:22:00,
2013-04-20 02:27:00,48.4,46.4,30.12,West,274,0.0,0.0,93,0.00,,,0.00,meteohub,2013-04-20 09:27:00,
2013-04-20 02:32:00,48.4,46.4,30.12,West,274,0.0,0.0,93,0.00,,,0.00,meteohub,2013-04-20 09:32:00,
2013-04-20 02:37:00,48.4,46.4,30.12,West,274,0.0,0.0,93,0.00,,,0.00,meteohub,2013-04-20 09:37:00,
2013-04-20 02:42:00,48.4,46.4,30.12,West,274,0.0,0.0,93,0.00,,,0.00,meteohub,2013-04-20 09:42:00,
2013-04-20 02:47:00,48.4,46.4,30.12,West,274,0.0,0.0,93,0.00,,,0.00,meteohub,2013-04-20 09:47:00,
2013-04-20 02:52:00,48.4,46.4,30.12,West,274,0.0,0.0,93,0.00,,,0.00,meteohub,2013-04-20 09:52:00,
2013-04-20 02:57:00,48.4,46.4,30.12,West,274,0.0,0.0,93,0.00,,,0.00,meteohub,2013-04-20 09:57:00,
2013-04-20 03:02:00,48.2,46.2,30.12,West,274,0.0,0.0,93,0.00,,,0.00,meteohub,2013-04-20 10:02:00,
2013-04-20 03:07:00,48.2,46.2,30.12,West,274,0.0,0.0,93,0.00,,,0.00,meteohub,2013-04-20 10:07:00,
2013-04-20 03:13:00,48.0,46.0,30.12,West,274,0.0,0.0,93,0.00,,,0.00,meteohub,2013-04-20 10:13:00,
2013-04-20 03:18:00,48.0,46.0,30.12,West,274,0.0,0.0,93,0.00,,,0.00,meteohub,2013-04-20 10:18:00,
2013-04-20 03:23:00,48.0,46.4,30.13,West,274,0.0,0.0,94,0.00,,,0.00,meteohub,2013-04-20 10:23:00,
2013-04-20 03:28:00,48.0,46.4,30.13,West,274,0.0,0.0,94,0.00,,,0.00,meteohub,2013-04-20 10:28:00,
2013-04-20 03:33:00,48.0,46.4,30.13,West,274,0.0,0.0,94,0.00,,,0.00,meteohub,2013-04-20 10:33:00,
2013-04-20 03:38:00,48.2,46.6,30.13,West,274,0.0,0.0,94,0.00,,,0.00,meteohub,2013-04-20 10:38:00,
2013-04-20 03:43:00,48.0,46.4,30.12,West,274,0.0,0.0,94,0.00,,,0.00,meteohub,2013-04-20 10:43:00,
2013-04-20 03:48:00,48.0,46.4,30.12,West,274,0.0,0.0,94,0.00,,,0.00,meteohub,2013-04-20 10:48:00,
2013-04-20 03:53:00,48.0,46.4,30.12,West,274,0.0,0.0,94,0.00,,,0.00,meteohub,2013-04-20 10:53:00,
2013-04-20 03:58:00,48.0,46.4,30.12,West,274,0.0,0.0,94,0.00,,,0.00,meteohub,2013-04-20 10:58:00,
2013-04-20 04:03:00,48.0,46.4,30.12,West,274,0.0,0.0,94,0.00,,,0.00,meteohub,2013-04-20 11:03:00,
2013-04-20 04:08:00,48.0,46.4,30.12,West,274,0.0,1.0,94,0.00,,,0.00,meteohub,2013-04-20 11:08:00,
2013-04-20 04:13:00,48.0,46.4,30.13,West,274,0.0,1.0,94,0.00,,,0.00,meteohub,2013-04-20 11:13:00,
2013-04-20 04:18:00,48.0,46.4,30.13,West,274,0.0,0.0,94,0.00,,,0.00,meteohub,2013-04-20 11:18:00,
2013-04-20 04:23:00,47.8,46.2,30.13,West,274,0.0,0.0,94,0.00,,,0.00,meteohub,2013-04-20 11:23:00,
2013-04-20 04:28:00,47.8,46.2,30.13,West,274,0.0,0.0,94,0.00,,,0.00,meteohub,2013-04-20 11:28:00,
2013-04-20 04:34:00,47.8,46.2,30.12,West,274,0.0,0.0,94,0.00,,,0.00,meteohub,2013-04-20 11:34:00,
2013-04-20 04:39:00,47.8,46.2,30.12,West,274,0.0,0.0,94,0.00,,,0.00,meteohub,2013-04-20 11:39:00,
2013-04-20 04:44:00,47.8,46.2,30.12,West,274,0.0,0.0,94,0.00,,,0.00,meteohub,2013-04-20 11:44:00,
2013-04-20 04:49:00,47.8,46.2,30.12,West,274,0.0,0.0,94,0.00,,,0.00,meteohub,2013-04-20 11:49:00,
2013-04-20 04:54:00,47.7,46.0,30.13,West,274,0.0,0.0,94,0.00,,,0.00,meteohub,2013-04-20 11:54:00,
2013-04-20 04:59:00,47.7,46.0,30.13,West,274,0.0,0.0,94,0.00,,,0.00,meteohub,2013-04-20 11:59:00,
2013-04-20 05:04:00,47.7,46.0,30.13,West,274,0.0,0.0,94,0.00,,,0.00,meteohub,2013-04-20 12:04:00,
2013-04-20 05:09:00,47.7,46.0,30.13,West,274,0.0,0.0,94,0.00,,,0.00,meteohub,2013-04-20 12:09:00,
2013-04-20 05:14:00,47.7,46.0,30.13,West,274,0.0,0.0,94,0.01,,,0.01,meteohub,2013-04-20 12:14:00,
2013-04-20 05:19:00,47.7,46.0,30.13,West,274,0.0,0.0,94,0.01,,,0.01,meteohub,2013-04-20 12:19:00,
2013-04-20 05:24:00,47.7,46.0,30.12,West,274,0.0,0.0,94,0.01,,,0.01,meteohub,2013-04-20 12:24:00,
2013-04-20 05:29:00,47.7,46.0,30.12,West,274,0.0,0.0,94,0.01,,,0.01,meteohub,2013-04-20 12:29:00,
2013-04-20 05:35:00,47.5,45.9,30.12,West,274,0.0,0.0,94,0.01,,,0.01,meteohub,2013-04-20 12:35:00,
2013-04-20 05:40:00,47.5,45.9,30.12,West,274,0.0,0.0,94,0.01,,,0.01,meteohub,2013-04-20 12:40:00,
2013-04-20 05:45:00,47.5,45.9,30.12,West,274,0.0,0.0,94,0.01,,,0.01,meteohub,2013-04-20 12:45:00,
2013-04-20 05:50:00,47.5,45.9,30.12,West,274,0.0,0.0,94,0.01,,,0.01,meteohub,2013-04-20 12:50:00,
2013-04-20 05:55:00,47.5,45.9,30.12,West,274,0.0,0.0,94,0.01,,,0.01,meteohub,2013-04-20 12:55:00,
2013-04-20 06:00:00,47.5,45.9,30.12,West,274,0.0,0.0,94,0.01,,,0.01,meteohub,2013-04-20 13:00:00,
2013-04-20 06:05:00,47.5,45.9,30.12,West,274,0.0,0.0,94,0.01,,,0.01,meteohub,2013-04-20 13:05:00,
2013-04-20 06:10:00,47.5,45.9,30.12,West,274,0.0,0.0,94,0.00,,,0.01,meteohub,2013-04-20 13:10:00,
2013-04-20 06:15:00,47.5,45.9,30.12,West,274,0.0,0.0,94,0.00,,,0.01,meteohub,2013-04-20 13:15:00,
2013-04-20 06:20:00,47.5,45.9,30.12,West,274,0.0,0.0,94,0.00,,,0.01,meteohub,2013-04-20 13:20:00,
2013-04-20 06:25:00,47.5,45.9,30.12,West,274,0.0,0.0,94,0.00,,,0.01,meteohub,2013-04-20 13:25:00,
2013-04-20 06:30:00,47.5,45.9,30.12,West,274,0.0,0.0,94,0.00,,,0.01,meteohub,2013-04-20 13:30:00,
2013-04-20 06:35:00,47.5,45.9,30.12,West,274,0.0,0.0,94,0.00,,,0.01,meteohub,2013-04-20 13:35:00,
2013-04-20 06:40:00,47.3,45.7,30.12,West,274,0.0,0.0,94,0.00,,,0.01,meteohub,2013-04-20 13:40:00,
2013-04-20 06:45:00,47.3,45.7,30.12,West,274,0.0,0.0,94,0.00,,,0.01,meteohub,2013-04-20 13:45:00,
2013-04-20 06:50:00,47.5,46.0,30.12,West,274,0.0,0.0,95,0.00,,,0.01,meteohub,2013-04-20 13:50:00,
2013-04-20 06:55:00,47.8,46.4,30.12,West,274,0.0,0.0,95,0.00,,,0.01,meteohub,2013-04-20 13:55:00,
2013-04-20 07:00:00,47.8,46.2,30.12,West,274,0.0,0.0,94,0.00,,,0.01,meteohub,2013-04-20 14:00:00,
2013-04-20 07:05:00,48.0,46.6,30.12,West,274,0.0,0.0,95,0.00,,,0.01,meteohub,2013-04-20 14:05:00,
2013-04-20 07:10:00,48.2,46.8,30.12,West,274,0.0,0.0,95,0.00,,,0.01,meteohub,2013-04-20 14:10:00,
2013-04-20 07:15:00,48.4,46.8,30.12,West,274,0.0,0.0,94,0.00,,,0.01,meteohub,2013-04-20 14:15:00,
2013-04-20 07:20:00,48.4,46.8,30.12,West,274,0.0,0.0,94,0.00,,,0.01,meteohub,2013-04-20 14:20:00,
2013-04-20 07:25:00,48.4,46.8,30.12,West,274,0.0,0.0,94,0.00,,,0.01,meteohub,2013-04-20 14:25:00,
2013-04-20 07:31:00,48.6,47.1,30.12,West,274,0.0,0.0,95,0.00,,,0.01,meteohub,2013-04-20 14:31:00,
2013-04-20 07:36:00,48.7,47.3,30.12,West,274,0.0,0.0,95,0.00,,,0.01,meteohub,2013-04-20 14:36:00,
2013-04-20 07:41:00,48.9,47.5,30.12,West,274,0.0,0.0,95,0.00,,,0.01,meteohub,2013-04-20 14:41:00,
2013-04-20 07:46:00,49.3,47.7,30.12,West,274,0.0,0.0,94,0.00,,,0.01,meteohub,2013-04-20 14:46:00,
2013-04-20 07:51:00,49.5,47.8,30.12,West,274,0.0,0.0,94,0.00,,,0.01,meteohub,2013-04-20 14:51:00,
2013-04-20 07:56:00,49.6,48.0,30.12,West,274,0.0,0.0,94,0.00,,,0.01,meteohub,2013-04-20 14:56:00,
2013-04-20 08:01:00,50.4,48.7,30.12,West,274,0.0,0.0,94,0.00,,,0.01,meteohub,2013-04-20 15:01:00,
2013-04-20 08:06:00,50.5,48.9,30.12,West,274,0.0,0.0,94,0.00,,,0.01,meteohub,2013-04-20 15:06:00,
2013-04-20 08:11:00,50.7,48.7,30.12,West,274,0.0,0.0,93,0.00,,,0.01,meteohub,2013-04-20 15:11:00,
2013-04-20 08:16:00,50.7,48.7,30.12,West,274,0.0,0.0,93,0.00,,,0.01,meteohub,2013-04-20 15:16:00,
2013-04-20 08:21:00,50.7,48.6,30.12,West,274,0.0,0.0,92,0.00,,,0.01,meteohub,2013-04-20 15:21:00,
2013-04-20 08:26:00,50.9,48.7,30.12,West,274,0.0,1.0,92,0.00,,,0.01,meteohub,2013-04-20 15:26:00,
2013-04-20 08:31:00,51.3,49.1,30.12,West,274,0.0,1.0,92,0.00,,,0.01,meteohub,2013-04-20 15:31:00,
2013-04-20 08:36:00,51.6,49.1,30.12,West,274,0.0,1.0,91,0.00,,,0.01,meteohub,2013-04-20 15:36:00,
2013-04-20 08:41:00,52.2,49.6,30.12,West,274,0.0,1.0,91,0.00,,,0.01,meteohub,2013-04-20 15:41:00,
2013-04-20 08:46:00,52.5,49.6,30.12,West,274,0.0,1.0,90,0.00,,,0.01,meteohub,2013-04-20 15:46:00,
2013-04-20 08:51:00,52.9,49.6,30.12,West,274,0.0,1.0,89,0.00,,,0.01,meteohub,2013-04-20 15:51:00,
2013-04-20 08:56:00,53.1,49.6,30.12,West,274,0.0,1.0,88,0.00,,,0.01,meteohub,2013-04-20 15:56:00,
2013-04-20 09:01:00,53.8,50.4,30.12,West,274,0.0,1.0,88,0.00,,,0.01,meteohub,2013-04-20 16:01:00,
2013-04-20 09:07:00,54.3,50.5,30.12,West,274,0.0,0.0,87,0.00,,,0.01,meteohub,2013-04-20 16:07:00,
2013-04-20 09:12:00,54.9,50.4,30.12,West,274,0.0,0.0,85,0.00,,,0.01,meteohub,2013-04-20 16:12:00,
2013-04-20 09:17:00,55.0,50.4,30.12,West,274,0.0,0.0,84,0.00,,,0.01,meteohub,2013-04-20 16:17:00,
2013-04-20 09:22:00,55.6,50.9,30.12,West,274,0.0,0.0,84,0.00,,,0.01,meteohub,2013-04-20 16:22:00,
2013-04-20 09:27:00,55.9,50.5,30.11,West,274,0.0,1.0,82,0.00,,,0.01,meteohub,2013-04-20 16:27:00,
2013-04-20 09:32:00,55.9,50.2,30.11,West,274,0.0,1.0,81,0.00,,,0.01,meteohub,2013-04-20 16:32:00,
2013-04-20 09:37:00,56.1,50.4,30.11,West,274,0.0,1.0,81,0.00,,,0.01,meteohub,2013-04-20 16:37:00,
2013-04-20 09:42:00,56.5,50.7,30.11,West,274,0.0,1.0,81,0.00,,,0.01,meteohub,2013-04-20 16:42:00,
2013-04-20 09:47:00,56.8,50.7,30.11,West,274,0.0,2.0,80,0.00,,,0.01,meteohub,2013-04-20 16:47:00,
2013-04-20 09:52:00,57.4,50.5,30.11,West,274,3.0,3.0,78,0.00,,,0.01,meteohub,2013-04-20 16:52:00,
2013-04-20 09:57:00,57.7,50.5,30.11,WSW,257,0.0,7.0,77,0.00,,,0.01,meteohub,2013-04-20 16:57:00,
2013-04-20 10:02:00,57.7,50.2,30.11,WSW,255,4.0,7.0,76,0.00,,,0.01,meteohub,2013-04-20 17:02:00,
2013-04-20 10:07:00,57.4,49.8,30.11,WSW,249,0.0,7.0,76,0.00,,,0.01,meteohub,2013-04-20 17:07:00,
2013-04-20 10:12:00,57.4,49.8,30.11,WSW,249,0.0,7.0,76,0.00,,,0.01,meteohub,2013-04-20 17:12:00,
2013-04-20 10:17:00,57.9,50.4,30.11,WSW,249,0.0,7.0,76,0.00,,,0.01,meteohub,2013-04-20 17:17:00,
2013-04-20 10:22:00,58.1,49.8,30.11,WSW,251,0.0,5.0,74,0.00,,,0.01,meteohub,2013-04-20 17:22:00,
2013-04-20 10:27:00,57.9,49.3,30.11,WSW,251,0.0,5.0,73,0.00,,,0.01,meteohub,2013-04-20 17:27:00,
2013-04-20 10:32:00,58.5,49.5,30.11,WSW,251,2.0,5.0,72,0.00,,,0.01,meteohub,2013-04-20 17:32:00,
2013-04-20 10:37:00,58.6,48.9,30.11,WSW,250,0.0,4.0,70,0.00,,,0.01,meteohub,2013-04-20 17:37:00,
2013-04-20 10:42:00,59.4,49.1,30.11,WSW,250,0.0,8.0,69,0.00,,,0.01,meteohub,2013-04-20 17:42:00,
2013-04-20 10:47:00,60.1,49.1,30.11,SW,233,7.0,8.0,67,0.00,,,0.01,meteohub,2013-04-20 17:47:00,
2013-04-20 10:52:00,60.1,49.1,30.11,WSW,239,1.0,8.0,67,0.00,,,0.01,meteohub,2013-04-20 17:52:00,
2013-04-20 10:57:00,59.7,48.4,30.11,WSW,243,2.0,8.0,66,0.00,,,0.01,meteohub,2013-04-20 17:57:00,
2013-04-20 11:02:00,59.5,48.6,30.11,WSW,240,6.0,8.0,67,0.00,,,0.01,meteohub,2013-04-20 18:02:00,
2013-04-20 11:07:00,59.9,49.3,30.11,WSW,241,6.0,7.0,68,0.00,,,0.01,meteohub,2013-04-20 18:07:00,
2013-04-20 11:12:00,59.7,49.1,30.11,WSW,255,0.0,7.0,68,0.00,,,0.01,meteohub,2013-04-20 18:12:00,
2013-04-20 11:17:00,59.7,49.5,30.11,WSW,252,0.0,7.0,69,0.00,,,0.01,meteohub,2013-04-20 18:17:00,
2013-04-20 11:22:00,60.6,49.6,30.11,WSW,252,4.0,7.0,67,0.00,,,0.01,meteohub,2013-04-20 18:22:00,
2013-04-20 11:28:00,61.3,49.8,30.11,West,259,0.0,7.0,66,0.00,,,0.01,meteohub,2013-04-20 18:28:00,
2013-04-20 11:33:00,62.1,50.5,30.11,West,259,0.0,6.0,66,0.00,,,0.01,meteohub,2013-04-20 18:33:00,
2013-04-20 11:38:00,62.2,50.7,30.11,WSW,250,1.0,6.0,66,0.00,,,0.01,meteohub,2013-04-20 18:38:00,
2013-04-20 11:43:00,62.1,50.2,30.11,WSW,246,5.0,7.0,65,0.00,,,0.01,meteohub,2013-04-20 18:43:00,
2013-04-20 11:48:00,60.6,49.3,30.11,WSW,248,0.0,8.0,66,0.00,,,0.01,meteohub,2013-04-20 18:48:00,
2013-04-20 11:53:00,60.4,49.1,30.11,West,261,1.0,8.0,66,0.00,,,0.01,meteohub,2013-04-20 18:53:00,
2013-04-20 11:58:00,60.4,49.1,30.10,West,262,0.0,8.0,66,0.00,,,0.01,meteohub,2013-04-20 18:58:00,
2013-04-20 12:03:00,60.6,49.3,30.10,West,265,0.0,8.0,66,0.00,,,0.01,meteohub,2013-04-20 19:03:00,
2013-04-20 12:08:00,61.2,49.3,30.10,West,262,5.0,8.0,65,0.00,,,0.01,meteohub,2013-04-20 19:08:00,
2013-04-20 12:13:00,60.4,48.6,30.10,WSW,247,6.0,8.0,65,0.00,,,0.01,meteohub,2013-04-20 19:13:00,
2013-04-20 12:18:00,60.3,48.9,30.10,WSW,255,3.0,9.0,66,0.00,,,0.01,meteohub,2013-04-20 19:18:00,
2013-04-20 12:23:00,60.4,49.5,30.10,WSW,257,2.0,9.0,67,0.00,,,0.01,meteohub,2013-04-20 19:23:00,
2013-04-20 12:28:00,59.7,48.7,30.10,WSW,254,2.0,9.0,67,0.00,,,0.01,meteohub,2013-04-20 19:28:00,
2013-04-20 12:33:00,59.4,49.1,30.10,WSW,240,0.0,8.0,69,0.00,,,0.01,meteohub,2013-04-20 19:33:00,
2013-04-20 12:38:00,59.7,48.4,30.10,WSW,249,6.0,8.0,66,0.00,,,0.01,meteohub,2013-04-20 19:38:00,
2013-04-20 12:43:00,58.8,48.2,30.10,WSW,250,0.0,8.0,68,0.00,,,0.01,meteohub,2013-04-20 19:43:00,
2013-04-20 12:49:00,59.2,48.2,30.10,West,275,7.0,10.0,67,0.00,,,0.01,meteohub,2013-04-20 19:49:00,
2013-04-20 12:54:00,58.5,48.4,30.09,West,272,7.0,10.0,69,0.00,,,0.01,meteohub,2013-04-20 19:54:00,
2013-04-20 12:59:00,57.9,48.9,30.10,West,266,7.0,10.0,72,0.00,,,0.01,meteohub,2013-04-20 19:59:00,
2013-04-20 13:04:00,57.7,48.7,30.09,West,266,6.0,10.0,72,0.00,,,0.01,meteohub,2013-04-20 20:04:00,
2013-04-20 13:09:00,57.4,49.1,30.09,West,264,3.0,12.0,74,0.00,,,0.01,meteohub,2013-04-20 20:09:00,
2013-04-20 13:14:00,57.2,48.9,30.09,West,273,6.0,12.0,74,0.00,,,0.01,meteohub,2013-04-20 20:14:00,
2013-04-20 13:19:00,57.2,49.3,30.09,West,261,5.0,12.0,75,0.00,,,0.01,meteohub,2013-04-20 20:19:00,
2013-04-20 13:24:00,57.2,49.3,30.09,West,269,11.0,11.0,75,0.00,,,0.01,meteohub,2013-04-20 20:24:00,
2013-04-20 13:29:00,56.8,49.3,30.09,West,277,3.0,10.0,76,0.00,,,0.01,meteohub,2013-04-20 20:29:00,
2013-04-20 13:34:00,56.8,49.3,30.09,WSW,246,8.0,12.0,76,0.00,,,0.01,meteohub,2013-04-20 20:34:00,
2013-04-20 13:39:00,56.7,49.5,30.09,WNW,297,1.0,12.0,77,0.00,,,0.01,meteohub,2013-04-20 20:39:00,
2013-04-20 13:44:00,56.5,48.9,30.09,West,280,7.0,12.0,76,0.00,,,0.01,meteohub,2013-04-20 20:44:00,
2013-04-20 13:49:00,56.1,48.7,30.09,West,268,6.0,12.0,76,0.00,,,0.01,meteohub,2013-04-20 20:49:00,
2013-04-20 13:54:00,55.8,48.9,30.09,West,266,6.0,12.0,78,0.00,,,0.01,meteohub,2013-04-20 20:54:00,
2013-04-20 13:59:00,55.8,48.9,30.09,WSW,245,7.0,11.0,78,0.00,,,0.01,meteohub,2013-04-20 20:59:00,
2013-04-20 14:04:00,55.9,49.5,30.09,WNW,285,8.0,11.0,79,0.00,,,0.01,meteohub,2013-04-20 21:04:00,
2013-04-20 14:09:00,55.9,49.1,30.09,WSW,252,8.0,11.0,78,0.00,,,0.01,meteohub,2013-04-20 21:09:00,
2013-04-20 14:14:00,56.1,48.9,30.09,West,274,5.0,13.0,77,0.00,,,0.01,meteohub,2013-04-20 21:14:00,
2013-04-20 14:19:00,56.1,49.3,30.08,West,278,3.0,13.0,78,0.00,,,0.01,meteohub,2013-04-20 21:19:00,
2013-04-20 14:24:00,56.5,49.3,30.08,WSW,250,7.0,12.0,77,0.00,,,0.01,meteohub,2013-04-20 21:24:00,
2013-04-20 14:29:00,56.8,49.3,30.08,West,271,4.0,12.0,76,0.00,,,0.01,meteohub,2013-04-20 21:29:00,
2013-04-20 14:34:00,56.7,49.5,30.08,West,278,6.0,12.0,77,0.00,,,0.01,meteohub,2013-04-20 21:34:00,
2013-04-20 14:39:00,57.0,49.5,30.08,West,259,7.0,12.0,76,0.00,,,0.01,meteohub,2013-04-20 21:39:00,
2013-04-20 14:44:00,57.6,49.6,30.08,WSW,252,7.0,12.0,75,0.00,,,0.01,meteohub,2013-04-20 21:44:00,
2013-04-20 14:49:00,57.2,49.3,30.08,NW,314,5.0,11.0,75,0.00,,,0.01,meteohub,2013-04-20 21:49:00,
2013-04-20 14:55:00,57.2,48.9,30.08,WNW,300,4.0,11.0,74,0.00,,,0.01,meteohub,2013-04-20 21:55:00,
2013-04-20 15:00:00,56.8,48.9,30.08,WSW,251,3.0,11.0,75,0.00,,,0.01,meteohub,2013-04-20 22:00:00,
2013-04-20 15:05:00,57.4,49.5,30.07,West,276,0.0,11.0,75,0.00,,,0.01,meteohub,2013-04-20 22:05:00,
2013-04-20 15:10:00,57.6,49.3,30.07,West,271,7.0,11.0,74,0.00,,,0.01,meteohub,2013-04-20 22:10:00,
2013-04-20 15:15:00,57.6,49.6,30.07,West,270,1.0,11.0,75,0.00,,,0.01,meteohub,2013-04-20 22:15:00,
2013-04-20 15:20:00,57.6,49.3,30.07,WSW,245,3.0,9.0,74,0.00,,,0.01,meteohub,2013-04-20 22:20:00,
2013-04-20 15:25:00,57.6,48.9,30.07,WNW,297,2.0,10.0,73,0.00,,,0.01,meteohub,2013-04-20 22:25:00,
2013-04-20 15:30:00,57.7,49.5,30.07,WNW,284,10.0,15.0,74,0.00,,,0.01,meteohub,2013-04-20 22:30:00,
2013-04-20 15:35:00,57.4,49.1,30.07,WSW,254,6.0,15.0,74,0.00,,,0.01,meteohub,2013-04-20 22:35:00,
2013-04-20 15:40:00,57.0,49.1,30.06,West,272,7.0,15.0,75,0.00,,,0.01,meteohub,2013-04-20 22:40:00,
2013-04-20 15:45:00,57.2,49.6,30.06,West,261,6.0,12.0,76,0.00,,,0.01,meteohub,2013-04-20 22:45:00,
2013-04-20 15:50:00,57.7,49.5,30.06,WNW,286,0.0,12.0,74,0.00,,,0.01,meteohub,2013-04-20 22:50:00,
2013-04-20 15:55:00,57.7,49.1,30.06,West,269,7.0,10.0,73,0.00,,,0.01,meteohub,2013-04-20 22:55:00,
2013-04-20 16:00:00,57.4,49.1,30.06,WSW,252,5.0,10.0,74,0.00,,,0.01,meteohub,2013-04-20 23:00:00,
2013-04-20 16:05:00,57.6,48.9,30.06,West,276,5.0,10.0,73,0.00,,,0.01,meteohub,2013-04-20 23:05:00,
2013-04-20 16:10:00,57.2,48.9,30.06,NW,307,5.0,14.0,74,0.00,,,0.01,meteohub,2013-04-20 23:10:00,
2013-04-20 16:15:00,57.4,49.5,30.05,WNW,292,4.0,14.0,75,0.00,,,0.01,meteohub,2013-04-20 23:15:00,
2013-04-20 16:20:00,57.4,49.5,30.05,WSW,256,3.0,12.0,75,0.00,,,0.01,meteohub,2013-04-20 23:20:00,
2013-04-20 16:25:00,57.0,49.1,30.05,West,277,0.0,12.0,75,0.00,,,0.01,meteohub,2013-04-20 23:25:00,
2013-04-20 16:30:00,57.2,49.3,30.05,West,281,0.0,12.0,75,0.00,,,0.01,meteohub,2013-04-20 23:30:00,
2013-04-20 16:35:00,56.7,48.7,30.05,WNW,282,3.0,11.0,75,0.00,,,0.01,meteohub,2013-04-20 23:35:00,
2013-04-20 16:40:00,56.5,48.9,30.05,WNW,283,0.0,11.0,76,0.00,,,0.01,meteohub,2013-04-20 23:40:00,
2013-04-20 16:45:00,56.8,49.3,30.05,West,274,4.0,11.0,76,0.00,,,0.01,meteohub,2013-04-20 23:45:00,
2013-04-20 16:50:00,56.7,48.7,30.05,WNW,298,2.0,12.0,75,0.00,,,0.01,meteohub,2013-04-20 23:50:00,
2013-04-20 16:55:00,56.5,48.9,30.05,West,261,9.0,12.0,76,0.00,,,0.01,meteohub,2013-04-20 23:55:00,
2013-04-20 17:00:00,56.1,48.7,30.05,WNW,300,2.0,12.0,76,0.00,,,0.01,meteohub,2013-04-21 00:00:00,
2013-04-20 17:05:00,55.8,48.9,30.05,West,274,4.0,13.0,78,0.00,,,0.01,meteohub,2013-04-21 00:05:00,
2013-04-20 17:10:00,55.6,48.9,30.05,WNW,284,2.0,13.0,78,0.00,,,0.01,meteohub,2013-04-21 00:10:00,
2013-04-20 17:16:00,55.6,48.9,30.05,West,278,4.0,11.0,78,0.00,,,0.01,meteohub,2013-04-21 00:16:00,
2013-04-20 17:21:00,55.4,48.9,30.05,West,263,3.0,11.0,79,0.00,,,0.01,meteohub,2013-04-21 00:21:00,
2013-04-20 17:26:00,55.4,48.9,30.04,West,270,2.0,11.0,79,0.00,,,0.01,meteohub,2013-04-21 00:26:00,
2013-04-20 17:31:00,55.0,48.6,30.04,West,266,4.0,11.0,79,0.00,,,0.01,meteohub,2013-04-21 00:31:00,
2013-04-20 17:36:00,54.7,48.6,30.05,WNW,291,5.0,12.0,80,0.00,,,0.01,meteohub,2013-04-21 00:36:00,
2013-04-20 17:41:00,54.9,48.7,30.04,West,264,6.0,12.0,80,0.00,,,0.01,meteohub,2013-04-21 00:41:00,
2013-04-20 17:46:00,54.5,48.4,30.04,WSW,251,7.0,11.0,80,0.00,,,0.01,meteohub,2013-04-21 00:46:00,
2013-04-20 17:51:00,54.7,48.9,30.04,West,266,5.0,12.0,81,0.00,,,0.01,meteohub,2013-04-21 00:51:00,
2013-04-20 17:56:00,54.7,48.9,30.04,West,274,4.0,12.0,81,0.00,,,0.01,meteohub,2013-04-21 00:56:00,
2013-04-20 18:01:00,54.7,48.9,30.04,WSW,237,4.0,11.0,81,0.00,,,0.01,meteohub,2013-04-21 01:01:00,
2013-04-20 18:06:00,54.3,48.6,30.04,SW,231,3.0,10.0,81,0.00,,,0.01,meteohub,2013-04-21 01:06:00,
2013-04-20 18:11:00,53.8,48.0,30.04,WSW,237,4.0,11.0,81,0.00,,,0.01,meteohub,2013-04-21 01:11:00,
2013-04-20 18:16:00,53.6,48.2,30.04,WSW,243,5.0,11.0,82,0.00,,,0.01,meteohub,2013-04-21 01:16:00,
2013-04-20 18:21:00,53.6,48.6,30.04,WSW,257,0.0,11.0,83,0.00,,,0.01,meteohub,2013-04-21 01:21:00,
2013-04-20 18:26:00,53.8,48.0,30.04,West,271,6.0,10.0,81,0.00,,,0.01,meteohub,2013-04-21 01:26:00,
2013-04-20 18:31:00,53.6,48.2,30.04,WSW,253,4.0,11.0,82,0.00,,,0.01,meteohub,2013-04-21 01:31:00,
2013-04-20 18:36:00,53.6,48.2,30.04,West,260,2.0,11.0,82,0.00,,,0.01,meteohub,2013-04-21 01:36:00,
2013-04-20 18:41:00,53.2,47.8,30.03,West,270,3.0,11.0,82,0.00,,,0.01,meteohub,2013-04-21 01:41:00,
2013-04-20 18:46:00,53.1,48.0,30.04,WSW,255,3.0,10.0,83,0.00,,,0.01,meteohub,2013-04-21 01:46:00,
2013-04-20 18:51:00,52.5,47.5,30.04,WSW,243,9.0,11.0,83,0.00,,,0.01,meteohub,2013-04-21 01:51:00,
2013-04-20 18:56:00,52.3,47.7,30.03,SW,225,0.0,12.0,84,0.00,,,0.01,meteohub,2013-04-21 01:56:00,
2013-04-20 19:01:00,52.2,47.5,30.03,West,266,8.0,12.0,84,0.00,,,0.01,meteohub,2013-04-21 02:01:00,
2013-04-20 19:06:00,52.0,47.3,30.03,WSW,253,3.0,12.0,84,0.00,,,0.01,meteohub,2013-04-21 02:06:00,
2013-04-20 19:12:00,52.0,47.7,30.03,WSW,254,4.0,9.0,85,0.00,,,0.01,meteohub,2013-04-21 02:12:00,
2013-04-20 19:17:00,51.6,47.3,30.03,WSW,250,5.0,9.0,85,0.00,,,0.01,meteohub,2013-04-21 02:17:00,
2013-04-20 19:22:00,51.3,46.9,30.03,West,274,2.0,10.0,85,0.00,,,0.01,meteohub,2013-04-21 02:22:00,
2013-04-20 19:27:00,51.3,47.3,30.03,WSW,240,5.0,10.0,86,0.00,,,0.01,meteohub,2013-04-21 02:27:00,
2013-04-20 19:32:00,51.1,47.1,30.04,West,262,0.0,10.0,86,0.00,,,0.01,meteohub,2013-04-21 02:32:00,
2013-04-20 19:37:00,50.9,46.9,30.04,SW,236,6.0,10.0,86,0.00,,,0.01,meteohub,2013-04-21 02:37:00,
2013-04-20 19:42:00,50.5,46.6,30.04,West,262,3.0,11.0,86,0.00,,,0.01,meteohub,2013-04-21 02:42:00,
2013-04-20 19:47:00,50.5,46.8,30.04,West,259,0.0,11.0,87,0.00,,,0.01,meteohub,2013-04-21 02:47:00,
2013-04-20 19:52:00,50.4,46.6,30.04,WSW,242,0.0,11.0,87,0.00,,,0.01,meteohub,2013-04-21 02:52:00,
2013-04-20 19:57:00,50.4,46.6,30.04,WSW,258,5.0,9.0,87,0.00,,,0.01,meteohub,2013-04-21 02:57:00,
2013-04-20 20:02:00,50.0,46.6,30.04,West,264,2.0,9.0,88,0.00,,,0.01,meteohub,2013-04-21 03:02:00,
2013-04-20 20:07:00,50.0,46.6,30.04,WSW,243,4.0,9.0,88,0.00,,,0.01,meteohub,2013-04-21 03:07:00,
2013-04-20 20:12:00,49.8,46.4,30.04,West,266,1.0,9.0,88,0.00,,,0.01,meteohub,2013-04-21 03:12:00,
2013-04-20 20:17:00,49.8,46.4,30.04,West,265,2.0,9.0,88,0.00,,,0.01,meteohub,2013-04-21 03:17:00,
2013-04-20 20:22:00,49.8,46.4,30.04,WSW,243,4.0,9.0,88,0.00,,,0.01,meteohub,2013-04-21 03:22:00,
2013-04-20 20:27:00,49.6,46.6,30.04,WSW,252,6.0,9.0,89,0.00,,,0.01,meteohub,2013-04-21 03:27:00,
2013-04-20 20:32:00,49.6,46.6,30.04,WSW,242,5.0,8.0,89,0.00,,,0.01,meteohub,2013-04-21 03:32:00,
2013-04-20 20:37:00,49.6,46.6,30.04,WSW,239,0.0,9.0,89,0.00,,,0.01,meteohub,2013-04-21 03:37:00,
2013-04-20 20:42:00,49.5,46.4,30.04,WSW,248,0.0,9.0,89,0.00,,,0.01,meteohub,2013-04-21 03:42:00,
2013-04-20 20:47:00,49.5,46.6,30.04,WSW,242,0.0,8.0,90,0.00,,,0.01,meteohub,2013-04-21 03:47:00,
2013-04-20 20:52:00,49.5,46.6,30.04,WSW,242,2.0,7.0,90,0.00,,,0.01,meteohub,2013-04-21 03:52:00,
2013-04-20 20:57:00,49.5,46.6,30.04,SW,233,6.0,7.0,90,0.00,,,0.01,meteohub,2013-04-21 03:57:00,
2013-04-20 21:01:00,49.3,46.4,30.04,SW,227,0.0,7.0,90,0.00,,,0.01,meteohub,2013-04-21 04:01:00,
2013-04-20 21:02:00,49.3,46.4,30.04,SW,227,0.0,7.0,90,0.00,,,0.01,meteohub,2013-04-21 04:02:00,
2013-04-20 21:07:00,49.3,46.4,30.04,WSW,237,5.0,7.0,90,0.00,,,0.01,meteohub,2013-04-21 04:07:00,
2013-04-20 21:12:00,49.3,46.4,30.04,WSW,237,2.0,9.0,90,0.00,,,0.01,meteohub,2013-04-21 04:12:00,
2013-04-20 21:17:00,49.1,46.2,30.05,WSW,240,4.0,9.0,90,0.00,,,0.01,meteohub,2013-04-21 04:17:00,
2013-04-20 21:22:00,48.9,46.0,30.05,SW,234,5.0,10.0,90,0.00,,,0.01,meteohub,2013-04-21 04:22:00,
2013-04-20 21:27:00,48.9,46.0,30.05,WSW,239,6.0,10.0,90,0.00,,,0.01,meteohub,2013-04-21 04:27:00,
2013-04-20 21:32:00,48.9,46.4,30.05,SW,228,2.0,10.0,91,0.00,,,0.01,meteohub,2013-04-21 04:32:00,
2013-04-20 21:37:00,48.9,46.4,30.05,SW,227,2.0,10.0,91,0.00,,,0.01,meteohub,2013-04-21 04:37:00,
2013-04-20 21:42:00,48.7,46.2,30.06,SW,233,4.0,10.0,91,0.00,,,0.01,meteohub,2013-04-21 04:42:00,
2013-04-20 21:47:00,48.7,46.2,30.06,SW,236,4.0,10.0,91,0.00,,,0.01,meteohub,2013-04-21 04:47:00,
2013-04-20 21:52:00,48.7,46.2,30.06,WSW,237,0.0,10.0,91,0.00,,,0.01,meteohub,2013-04-21 04:52:00,
2013-04-20 21:57:00,48.7,46.2,30.05,SW,235,6.0,8.0,91,0.00,,,0.01,meteohub,2013-04-21 04:57:00,
2013-04-20 22:02:00,48.7,46.2,30.05,SW,235,5.0,8.0,91,0.00,,,0.01,meteohub,2013-04-21 05:02:00,
2013-04-20 22:07:00,48.7,46.2,30.05,SW,235,0.0,8.0,91,0.00,,,0.01,meteohub,2013-04-21 05:07:00,
2013-04-20 22:12:00,48.6,46.0,30.05,SW,234,0.0,8.0,91,0.00,,,0.01,meteohub,2013-04-21 05:12:00,
2013-04-20 22:17:00,48.6,46.0,30.05,SW,234,3.0,7.0,91,0.00,,,0.01,meteohub,2013-04-21 05:17:00,
2013-04-20 22:22:00,48.6,46.0,30.05,SW,235,2.0,7.0,91,0.00,,,0.01,meteohub,2013-04-21 05:22:00,
2013-04-20 22:27:00,48.6,46.4,30.05,SW,235,0.0,7.0,92,0.00,,,0.01,meteohub,2013-04-21 05:27:00,
2013-04-20 22:32:00,48.4,46.2,30.05,WSW,238,6.0,7.0,92,0.00,,,0.01,meteohub,2013-04-21 05:32:00,
2013-04-20 22:37:00,48.4,46.2,30.05,SW,229,3.0,7.0,92,0.00,,,0.01,meteohub,2013-04-21 05:37:00,
2013-04-20 22:42:00,48.4,46.2,30.05,SW,218,7.0,7.0,92,0.00,,,0.01,meteohub,2013-04-21 05:42:00,
2013-04-20 22:47:00,48.4,46.2,30.06,SW,236,4.0,9.0,92,0.00,,,0.01,meteohub,2013-04-21 05:47:00,
2013-04-20 22:52:00,48.4,46.2,30.06,WSW,245,7.0,11.0,92,0.00,,,0.01,meteohub,2013-04-21 05:52:00,
2013-04-20 22:57:00,48.2,46.0,30.05,SSW,209,3.0,11.0,92,0.00,,,0.01,meteohub,2013-04-21 05:57:00,
2013-04-20 23:02:00,48.2,46.0,30.05,SW,221,5.0,9.0,92,0.00,,,0.01,meteohub,2013-04-21 06:02:00,
2013-04-20 23:07:00,48.2,47.1,30.05,SW,221,1.0,9.0,96,0.00,,,0.01,meteohub,2013-04-21 06:07:00,
2013-04-20 23:12:00,48.2,46.0,30.05,SW,219,0.0,8.0,92,0.00,,,0.01,meteohub,2013-04-21 06:12:00,
2013-04-20 23:17:00,48.2,46.0,30.05,SW,233,1.0,8.0,92,0.00,,,0.01,meteohub,2013-04-21 06:17:00,
2013-04-20 23:22:00,48.2,46.0,30.05,SW,221,3.0,7.0,92,0.00,,,0.01,meteohub,2013-04-21 06:22:00,
2013-04-20 23:27:00,48.0,45.9,30.05,SW,220,0.0,8.0,92,0.00,,,0.01,meteohub,2013-04-21 06:27:00,
2013-04-20 23:32:00,48.0,45.9,30.05,SW,228,4.0,8.0,92,0.00,,,0.01,meteohub,2013-04-21 06:32:00,
2013-04-20 23:37:00,48.0,45.9,30.05,SW,217,1.0,8.0,92,0.00,,,0.01,meteohub,2013-04-21 06:37:00,
2013-04-20 23:42:00,48.0,45.9,30.05,SW,217,3.0,9.0,92,0.00,,,0.01,meteohub,2013-04-21 06:42:00,
2013-04-20 23:47:00,48.0,45.9,30.05,SW,218,5.0,9.0,92,0.00,,,0.01,meteohub,2013-04-21 06:47:00,
2013-04-20 23:52:00,48.0,45.9,30.05,SW,214,1.0,9.0,92,0.00,,,0.01,meteohub,2013-04-21 06:52:00,
2013-04-20 23:57:00,47.8,45.7,30.05,SW,214,0.0,7.0,92,0.00,,,0.01,meteohub,2013-04-21 06:57:00,